sensor_id;sensor_type;location;lat;lon;timestamp;pressure;altitude;pressure_sealevel;temperature;humidity
54920;BME280;63804;53.120;8.764;2022-10-16T00:01:51;101005.47;;;14.84;51.34
54920;BME280;63804;53.120;8.764;2022-10-16T00:04:17;101009.16;;;14.72;51.62
54920;BME280;63804;53.120;8.764;2022-10-16T00:06:42;100999.63;;;14.66;51.52
54920;BME280;63804;53.120;8.764;2022-10-16T00:09:08;101003.91;;;14.63;51.56
54920;BME280;63804;53.120;8.764;2022-10-16T00:11:35;101008.31;;;14.68;51.38
54920;BME280;63804;53.120;8.764;2022-10-16T00:14:07;101005.19;;;14.70;51.26
54920;BME280;63804;53.120;8.764;2022-10-16T00:16:34;101010.91;;;14.80;50.95
54920;BME280;63804;53.120;8.764;2022-10-16T00:18:59;101020.44;;;14.67;51.00
54920;BME280;63804;53.120;8.764;2022-10-16T00:21:27;101020.16;;;14.72;51.18
54920;BME280;63804;53.120;8.764;2022-10-16T00:24:01;101020.16;;;14.72;50.79
54920;BME280;63804;53.120;8.764;2022-10-16T00:26:29;101026.44;;;14.73;50.85
54920;BME280;63804;53.120;8.764;2022-10-16T00:28:55;101029.28;;;14.76;50.82
54920;BME280;63804;53.120;8.764;2022-10-16T00:31:22;101023.97;;;14.68;51.02
54920;BME280;63804;53.120;8.764;2022-10-16T00:33:49;101028.63;;;14.63;51.16
54920;BME280;63804;53.120;8.764;2022-10-16T00:36:17;101021.53;;;14.62;51.18
54920;BME280;63804;53.120;8.764;2022-10-16T00:38:43;101024.34;;;14.66;50.89
54920;BME280;63804;53.120;8.764;2022-10-16T00:41:12;101039.63;;;14.63;51.05
54920;BME280;63804;53.120;8.764;2022-10-16T00:43:44;101036.16;;;14.47;51.45
54920;BME280;63804;53.120;8.764;2022-10-16T00:46:12;101037.09;;;14.55;50.80
54920;BME280;63804;53.120;8.764;2022-10-16T00:48:39;101041.78;;;14.54;51.08
54920;BME280;63804;53.120;8.764;2022-10-16T00:51:05;101046.19;;;14.39;51.06
54920;BME280;63804;53.120;8.764;2022-10-16T00:53:33;101042.44;;;14.48;51.18
54920;BME280;63804;53.120;8.764;2022-10-16T00:55:59;101035.38;;;14.47;51.07
54920;BME280;63804;53.120;8.764;2022-10-16T00:58:24;101038.13;;;14.47;51.32
54920;BME280;63804;53.120;8.764;2022-10-16T01:00:50;101041.66;;;14.47;51.18
54920;BME280;63804;53.120;8.764;2022-10-16T01:03:42;101040.94;;;14.50;50.64
54920;BME280;63804;53.120;8.764;2022-10-16T01:06:21;101040.13;;;14.50;50.88
54920;BME280;63804;53.120;8.764;2022-10-16T01:09:03;101033.69;;;14.42;51.11
54920;BME280;63804;53.120;8.764;2022-10-16T01:11:45;101036.38;;;14.38;50.93
54920;BME280;63804;53.120;8.764;2022-10-16T01:17:10;101034.34;;;14.35;50.93
54920;BME280;63804;53.120;8.764;2022-10-16T01:19:53;101034.06;;;14.40;50.80
54920;BME280;63804;53.120;8.764;2022-10-16T01:22:33;101035.38;;;14.27;51.08
54920;BME280;63804;53.120;8.764;2022-10-16T01:25:05;101037.69;;;14.25;51.34
54920;BME280;63804;53.120;8.764;2022-10-16T01:27:36;101037.69;;;14.25;51.12
54920;BME280;63804;53.120;8.764;2022-10-16T01:30:26;101043.97;;;14.25;50.98
54920;BME280;63804;53.120;8.764;2022-10-16T01:33:20;101044.03;;;14.29;50.92
54920;BME280;63804;53.120;8.764;2022-10-16T01:35:52;101035.66;;;14.22;51.17
54920;BME280;63804;53.120;8.764;2022-10-16T01:38:30;101043.97;;;14.25;51.04
54920;BME280;63804;53.120;8.764;2022-10-16T01:41:01;101044.88;;;14.14;51.42
54920;BME280;63804;53.120;8.764;2022-10-16T01:43:43;101042.56;;;14.16;50.97
54920;BME280;63804;53.120;8.764;2022-10-16T01:46:10;101028.28;;;14.06;51.31
54920;BME280;63804;53.120;8.764;2022-10-16T01:48:36;101043.38;;;14.16;51.35
54920;BME280;63804;53.120;8.764;2022-10-16T01:51:08;101036.78;;;14.21;51.22
54920;BME280;63804;53.120;8.764;2022-10-16T01:53:36;101045.53;;;14.07;51.40
54920;BME280;63804;53.120;8.764;2022-10-16T01:56:06;101039.69;;;14.09;51.20
54920;BME280;63804;53.120;8.764;2022-10-16T01:58:36;101040.19;;;14.14;51.53
54920;BME280;63804;53.120;8.764;2022-10-16T02:01:04;101044.03;;;14.10;51.44
54920;BME280;63804;53.120;8.764;2022-10-16T02:03:34;101029.94;;;14.11;51.40
54920;BME280;63804;53.120;8.764;2022-10-16T02:06:02;101027.25;;;13.79;51.91
54920;BME280;63804;53.120;8.764;2022-10-16T02:08:29;101035.75;;;13.90;51.83
54920;BME280;63804;53.120;8.764;2022-10-16T02:10:57;101032.16;;;14.05;51.25
54920;BME280;63804;53.120;8.764;2022-10-16T02:13:29;101032.69;;;14.11;51.15
54920;BME280;63804;53.120;8.764;2022-10-16T02:16:02;101039.19;;;14.03;51.60
54920;BME280;63804;53.120;8.764;2022-10-16T02:18:28;101047.13;;;14.08;51.44
54920;BME280;63804;53.120;8.764;2022-10-16T02:21:00;101051.09;;;14.11;51.21
54920;BME280;63804;53.120;8.764;2022-10-16T02:23:36;101055.44;;;14.12;51.34
54920;BME280;63804;53.120;8.764;2022-10-16T02:26:04;101049.66;;;14.17;51.09
54920;BME280;63804;53.120;8.764;2022-10-16T02:28:53;101047.63;;;14.14;50.97
54920;BME280;63804;53.120;8.764;2022-10-16T02:31:24;101048.56;;;14.02;51.32
54920;BME280;63804;53.120;8.764;2022-10-16T02:33:55;101049.06;;;13.88;51.60
54920;BME280;63804;53.120;8.764;2022-10-16T02:36:21;101048.56;;;14.02;51.48
54920;BME280;63804;53.120;8.764;2022-10-16T02:38:47;101046.03;;;14.13;51.21
54920;BME280;63804;53.120;8.764;2022-10-16T02:41:14;101043.06;;;14.02;51.29
54920;BME280;63804;53.120;8.764;2022-10-16T02:43:39;101036.16;;;14.08;51.26
54920;BME280;63804;53.120;8.764;2022-10-16T02:46:05;101038.69;;;13.81;51.75
54920;BME280;63804;53.120;8.764;2022-10-16T02:48:30;101029.56;;;13.93;51.60
54920;BME280;63804;53.120;8.764;2022-10-16T02:50:56;101033.69;;;14.03;51.40
54920;BME280;63804;53.120;8.764;2022-10-16T02:53:22;101045.88;;;14.05;51.33
54920;BME280;63804;53.120;8.764;2022-10-16T02:55:48;101039.81;;;13.96;51.37
54920;BME280;63804;53.120;8.764;2022-10-16T02:58:13;101042.28;;;14.01;51.11
54920;BME280;63804;53.120;8.764;2022-10-16T03:00:39;101041.41;;;13.97;51.52
54920;BME280;63804;53.120;8.764;2022-10-16T03:03:04;101045.53;;;14.07;51.00
54920;BME280;63804;53.120;8.764;2022-10-16T03:05:30;101042.50;;;14.12;51.00
54920;BME280;63804;53.120;8.764;2022-10-16T03:07:55;101044.88;;;14.14;51.02
54920;BME280;63804;53.120;8.764;2022-10-16T03:10:21;101042.56;;;14.16;50.96
54920;BME280;63804;53.120;8.764;2022-10-16T03:12:46;101055.09;;;14.13;50.82
54920;BME280;63804;53.120;8.764;2022-10-16T03:15:12;101046.91;;;14.17;50.88
54920;BME280;63804;53.120;8.764;2022-10-16T03:17:37;101051.38;;;14.05;51.25
54920;BME280;63804;53.120;8.764;2022-10-16T03:20:03;101049.53;;;14.10;51.27
54920;BME280;63804;53.120;8.764;2022-10-16T03:22:29;101051.81;;;14.07;51.36
54920;BME280;63804;53.120;8.764;2022-10-16T03:24:54;101050.25;;;14.06;51.33
54920;BME280;63804;53.120;8.764;2022-10-16T03:27:20;101048.91;;;14.00;51.22
54920;BME280;63804;53.120;8.764;2022-10-16T03:29:45;101049.19;;;13.95;51.65
54920;BME280;63804;53.120;8.764;2022-10-16T03:32:11;101061.69;;;13.93;51.71
54920;BME280;63804;53.120;8.764;2022-10-16T03:34:37;101060.03;;;13.88;51.79
54920;BME280;63804;53.120;8.764;2022-10-16T03:37:02;101065.06;;;13.86;51.87
54920;BME280;63804;53.120;8.764;2022-10-16T03:39:28;101059.31;;;13.91;51.67
54920;BME280;63804;53.120;8.764;2022-10-16T03:41:53;101058.56;;;13.94;51.48
54920;BME280;63804;53.120;8.764;2022-10-16T03:44:19;101064.09;;;13.78;52.22
54920;BME280;63804;53.120;8.764;2022-10-16T03:46:44;101068.63;;;13.86;51.75
54920;BME280;63804;53.120;8.764;2022-10-16T03:49:10;101065.50;;;13.88;51.75
54920;BME280;63804;53.120;8.764;2022-10-16T03:51:35;101060.09;;;13.92;51.96
54920;BME280;63804;53.120;8.764;2022-10-16T03:54:01;101061.59;;;13.89;51.98
54920;BME280;63804;53.120;8.764;2022-10-16T03:56:26;101066.44;;;13.96;51.83
54920;BME280;63804;53.120;8.764;2022-10-16T03:58:52;101062.56;;;13.97;51.96
54920;BME280;63804;53.120;8.764;2022-10-16T04:01:17;101071.16;;;13.95;51.75
54920;BME280;63804;53.120;8.764;2022-10-16T04:03:43;101076.28;;;13.97;52.00
54920;BME280;63804;53.120;8.764;2022-10-16T04:06:08;101075.31;;;13.89;51.91
54920;BME280;63804;53.120;8.764;2022-10-16T04:08:34;101074.47;;;13.85;52.32
54920;BME280;63804;53.120;8.764;2022-10-16T04:11:02;101082.41;;;13.90;52.18
54920;BME280;63804;53.120;8.764;2022-10-16T04:13:28;101091.34;;;13.87;52.38
54920;BME280;63804;53.120;8.764;2022-10-16T04:15:54;101092.50;;;13.86;52.22
54920;BME280;63804;53.120;8.764;2022-10-16T04:18:19;101097.72;;;13.91;52.18
54920;BME280;63804;53.120;8.764;2022-10-16T04:20:45;101107.28;;;13.81;52.43
54920;BME280;63804;53.120;8.764;2022-10-16T04:23:10;101098.50;;;13.92;52.55
54920;BME280;63804;53.120;8.764;2022-10-16T04:25:36;101093.97;;;13.99;52.20
54920;BME280;63804;53.120;8.764;2022-10-16T04:28:02;101091.88;;;13.77;52.91
54920;BME280;63804;53.120;8.764;2022-10-16T04:30:27;101079.59;;;13.86;52.75
54920;BME280;63804;53.120;8.764;2022-10-16T04:32:53;101081.28;;;13.91;52.61
54920;BME280;63804;53.120;8.764;2022-10-16T04:35:20;101079.75;;;13.94;52.63
54920;BME280;63804;53.120;8.764;2022-10-16T04:37:46;101078.53;;;13.91;52.49
54920;BME280;63804;53.120;8.764;2022-10-16T04:40:12;101072.56;;;13.89;52.84
54920;BME280;63804;53.120;8.764;2022-10-16T04:42:38;101077.28;;;13.88;52.89
54920;BME280;63804;53.120;8.764;2022-10-16T04:45:05;101085.00;;;13.83;53.18
54920;BME280;63804;53.120;8.764;2022-10-16T04:47:31;101088.19;;;13.85;53.42
54920;BME280;63804;53.120;8.764;2022-10-16T04:49:56;101103.03;;;13.84;53.24
54920;BME280;63804;53.120;8.764;2022-10-16T04:52:22;101094.69;;;13.80;53.36
54920;BME280;63804;53.120;8.764;2022-10-16T04:54:50;101095.69;;;13.88;53.33
54920;BME280;63804;53.120;8.764;2022-10-16T04:57:16;101091.59;;;13.98;53.00
54920;BME280;63804;53.120;8.764;2022-10-16T04:59:42;101095.84;;;13.95;53.30
54920;BME280;63804;53.120;8.764;2022-10-16T05:02:07;101094.09;;;13.87;53.59
54920;BME280;63804;53.120;8.764;2022-10-16T05:04:33;101093.81;;;13.92;53.55
54920;BME280;63804;53.120;8.764;2022-10-16T05:06:58;101099.56;;;14.03;53.10
54920;BME280;63804;53.120;8.764;2022-10-16T05:09:24;101114.44;;;14.02;53.22
54920;BME280;63804;53.120;8.764;2022-10-16T05:11:49;101109.44;;;14.07;53.20
54920;BME280;63804;53.120;8.764;2022-10-16T05:14:15;101112.66;;;14.10;53.16
54920;BME280;63804;53.120;8.764;2022-10-16T05:16:40;101115.22;;;14.02;53.46
54920;BME280;63804;53.120;8.764;2022-10-16T05:19:06;101115.41;;;14.10;53.23
54920;BME280;63804;53.120;8.764;2022-10-16T05:21:32;101112.19;;;14.07;53.18
54920;BME280;63804;53.120;8.764;2022-10-16T05:23:57;101116.19;;;14.10;53.47
54920;BME280;63804;53.120;8.764;2022-10-16T05:26:23;101114.06;;;14.03;53.60
54920;BME280;63804;53.120;8.764;2022-10-16T05:28:49;101127.09;;;14.06;53.48
54920;BME280;63804;53.120;8.764;2022-10-16T05:31:15;101123.97;;;14.08;53.75
54920;BME280;63804;53.120;8.764;2022-10-16T05:33:40;101119.28;;;14.09;53.78
54920;BME280;63804;53.120;8.764;2022-10-16T05:36:08;101124.06;;;14.12;53.61
54920;BME280;63804;53.120;8.764;2022-10-16T05:38:37;101136.31;;;13.98;53.89
54920;BME280;63804;53.120;8.764;2022-10-16T05:41:04;101127.28;;;13.98;54.15
54920;BME280;63804;53.120;8.764;2022-10-16T05:43:30;101135.59;;;13.85;54.41
54920;BME280;63804;53.120;8.764;2022-10-16T05:46:05;101137.16;;;14.02;54.41
54920;BME280;63804;53.120;8.764;2022-10-16T05:48:32;101141.16;;;13.89;54.47
54920;BME280;63804;53.120;8.764;2022-10-16T05:51:02;101142.66;;;14.02;54.16
54920;BME280;63804;53.120;8.764;2022-10-16T05:53:30;101135.59;;;14.01;54.37
54920;BME280;63804;53.120;8.764;2022-10-16T05:55:57;101146.72;;;14.09;54.00
54920;BME280;63804;53.120;8.764;2022-10-16T05:58:23;101146.81;;;14.12;53.84
54920;BME280;63804;53.120;8.764;2022-10-16T06:00:53;101148.34;;;14.10;54.31
54920;BME280;63804;53.120;8.764;2022-10-16T06:03:19;101155.25;;;14.03;54.20
54920;BME280;63804;53.120;8.764;2022-10-16T06:05:45;101153.47;;;14.11;54.07
54920;BME280;63804;53.120;8.764;2022-10-16T06:08:10;101157.88;;;14.16;53.96
54920;BME280;63804;53.120;8.764;2022-10-16T06:10:36;101159.91;;;14.19;54.09
54920;BME280;63804;53.120;8.764;2022-10-16T06:13:01;101156.44;;;14.22;53.76
54920;BME280;63804;53.120;8.764;2022-10-16T06:15:27;101163.44;;;14.19;53.79
54920;BME280;63804;53.120;8.764;2022-10-16T06:17:52;101162.22;;;14.17;54.12
54920;BME280;63804;53.120;8.764;2022-10-16T06:20:18;101166.72;;;14.25;53.77
54920;BME280;63804;53.120;8.764;2022-10-16T06:22:43;101167.56;;;14.29;53.89
54920;BME280;63804;53.120;8.764;2022-10-16T06:25:09;101168.22;;;14.22;53.92
54920;BME280;63804;53.120;8.764;2022-10-16T06:27:34;101180.53;;;14.13;54.26
54920;BME280;63804;53.120;8.764;2022-10-16T06:30:00;101182.75;;;14.23;54.22
54920;BME280;63804;53.120;8.764;2022-10-16T06:32:27;101185.31;;;14.16;54.17
54920;BME280;63804;53.120;8.764;2022-10-16T06:34:52;101184.19;;;14.17;54.16
54920;BME280;63804;53.120;8.764;2022-10-16T06:37:18;101200.22;;;14.15;54.60
54920;BME280;63804;53.120;8.764;2022-10-16T06:39:43;101196.28;;;14.16;54.47
54920;BME280;63804;53.120;8.764;2022-10-16T06:42:09;101199.31;;;14.11;54.65
54920;BME280;63804;53.120;8.764;2022-10-16T06:44:34;101205.34;;;14.00;54.94
54920;BME280;63804;53.120;8.764;2022-10-16T06:47:00;101196.28;;;14.16;54.35
54920;BME280;63804;53.120;8.764;2022-10-16T06:49:25;101209.03;;;14.24;53.99
54920;BME280;63804;53.120;8.764;2022-10-16T06:51:51;101214.09;;;14.22;54.09
54920;BME280;63804;53.120;8.764;2022-10-16T06:54:16;101213.38;;;14.25;54.30
54920;BME280;63804;53.120;8.764;2022-10-16T06:56:43;101212.94;;;14.23;54.13
54920;BME280;63804;53.120;8.764;2022-10-16T06:59:08;101225.06;;;14.22;54.25
54920;BME280;63804;53.120;8.764;2022-10-16T07:01:34;101228.59;;;14.22;53.98
54920;BME280;63804;53.120;8.764;2022-10-16T07:04:00;101225.34;;;14.17;54.61
54920;BME280;63804;53.120;8.764;2022-10-16T07:06:26;101226.31;;;14.24;54.25
54920;BME280;63804;53.120;8.764;2022-10-16T07:08:52;101238.97;;;14.29;53.96
54920;BME280;63804;53.120;8.764;2022-10-16T07:11:20;101242.69;;;14.21;54.29
54920;BME280;63804;53.120;8.764;2022-10-16T07:13:47;101241.38;;;14.15;54.50
54920;BME280;63804;53.120;8.764;2022-10-16T07:16:16;101255.91;;;14.15;54.46
54920;BME280;63804;53.120;8.764;2022-10-16T07:18:43;101253.88;;;14.28;54.22
54920;BME280;63804;53.120;8.764;2022-10-16T07:21:16;101256.25;;;14.30;54.43
54920;BME280;63804;53.120;8.764;2022-10-16T07:23:43;101263.78;;;14.17;54.60
54920;BME280;63804;53.120;8.764;2022-10-16T07:26:09;101258.53;;;14.28;54.46
54920;BME280;63804;53.120;8.764;2022-10-16T07:28:35;101262.25;;;14.19;54.67
54920;BME280;63804;53.120;8.764;2022-10-16T07:31:06;101271.19;;;14.32;54.51
54920;BME280;63804;53.120;8.764;2022-10-16T07:33:34;101270.66;;;14.42;54.14
54920;BME280;63804;53.120;8.764;2022-10-16T07:36:00;101280.41;;;14.40;54.38
54920;BME280;63804;53.120;8.764;2022-10-16T07:38:25;101272.06;;;14.52;54.28
54920;BME280;63804;53.120;8.764;2022-10-16T07:41:03;101278.91;;;14.42;54.29
54920;BME280;63804;53.120;8.764;2022-10-16T07:43:29;101278.53;;;14.60;53.76
54920;BME280;63804;53.120;8.764;2022-10-16T07:45:55;101281.38;;;14.48;54.35
54920;BME280;63804;53.120;8.764;2022-10-16T07:48:22;101282.34;;;14.55;54.10
54920;BME280;63804;53.120;8.764;2022-10-16T07:50:47;101287.41;;;14.53;54.24
54920;BME280;63804;53.120;8.764;2022-10-16T07:53:14;101291.09;;;14.61;54.08
54920;BME280;63804;53.120;8.764;2022-10-16T07:55:39;101292.50;;;14.71;53.61
54920;BME280;63804;53.120;8.764;2022-10-16T07:58:06;101306.25;;;14.87;53.54
54920;BME280;63804;53.120;8.764;2022-10-16T08:00:32;101309.78;;;14.87;53.51
54920;BME280;63804;53.120;8.764;2022-10-16T08:02:58;101311.47;;;14.92;53.24
54920;BME280;63804;53.120;8.764;2022-10-16T08:05:31;101305.81;;;14.85;53.68
54920;BME280;63804;53.120;8.764;2022-10-16T08:07:57;101303.06;;;14.85;53.81
54920;BME280;63804;53.120;8.764;2022-10-16T08:10:24;101312.44;;;14.84;53.42
54920;BME280;63804;53.120;8.764;2022-10-16T08:12:51;101313.13;;;14.96;53.39
54920;BME280;63804;53.120;8.764;2022-10-16T08:15:17;101316.31;;;14.98;53.08
54920;BME280;63804;53.120;8.764;2022-10-16T08:17:42;101319.41;;;14.97;53.20
54920;BME280;63804;53.120;8.764;2022-10-16T08:20:09;101327.38;;;15.02;53.02
54920;BME280;63804;53.120;8.764;2022-10-16T08:22:35;101331.63;;;14.99;53.17
54920;BME280;63804;53.120;8.764;2022-10-16T08:25:00;101335.34;;;15.07;52.86
54920;BME280;63804;53.120;8.764;2022-10-16T08:27:31;101335.38;;;15.27;52.36
54920;BME280;63804;53.120;8.764;2022-10-16T08:29:57;101332.09;;;15.02;53.04
54920;BME280;63804;53.120;8.764;2022-10-16T08:32:22;101344.09;;;15.13;52.59
54920;BME280;63804;53.120;8.764;2022-10-16T08:34:48;101349.25;;;15.14;52.38
54920;BME280;63804;53.120;8.764;2022-10-16T08:37:13;101347.41;;;15.03;52.83
54920;BME280;63804;53.120;8.764;2022-10-16T08:39:39;101343.03;;;15.17;52.56
54920;BME280;63804;53.120;8.764;2022-10-16T08:43:18;101350.13;;;15.18;52.54
54920;BME280;63804;53.120;8.764;2022-10-16T08:51:25;101370.41;;;15.30;52.16
54920;BME280;63804;53.120;8.764;2022-10-16T08:53:54;101369.97;;;15.28;52.13
54920;BME280;63804;53.120;8.764;2022-10-16T08:56:21;101371.34;;;15.38;51.93
54920;BME280;63804;53.120;8.764;2022-10-16T08:58:54;101373.88;;;15.46;51.87
54920;BME280;63804;53.120;8.764;2022-10-16T09:01:21;101380.13;;;15.43;51.71
54920;BME280;63804;53.120;8.764;2022-10-16T09:06:48;101384.75;;;15.39;51.63
54920;BME280;63804;53.120;8.764;2022-10-16T09:17:03;101391.94;;;15.83;50.48
54920;BME280;63804;53.120;8.764;2022-10-16T09:19:38;101390.50;;;16.08;50.05
54920;BME280;63804;53.120;8.764;2022-10-16T09:22:15;101401.22;;;16.37;49.60
54920;BME280;63804;53.120;8.764;2022-10-16T09:24:42;101392.41;;;16.27;49.65
54920;BME280;63804;53.120;8.764;2022-10-16T09:27:12;101385.78;;;16.32;49.84
54920;BME280;63804;53.120;8.764;2022-10-16T09:29:39;101394.84;;;16.33;49.52
54920;BME280;63804;53.120;8.764;2022-10-16T09:32:18;101403.53;;;16.35;49.07
54920;BME280;63804;53.120;8.764;2022-10-16T09:34:53;101400.47;;;16.40;49.46
54920;BME280;63804;53.120;8.764;2022-10-16T09:37:22;101403.47;;;16.31;49.43
54920;BME280;63804;53.120;8.764;2022-10-16T09:39:51;101406.03;;;16.20;49.64
54920;BME280;63804;53.120;8.764;2022-10-16T09:42:24;101410.94;;;16.31;49.43
54920;BME280;63804;53.120;8.764;2022-10-16T09:44:53;101409.41;;;16.33;49.21
54920;BME280;63804;53.120;8.764;2022-10-16T09:47:29;101402.78;;;16.38;48.95
54920;BME280;63804;53.120;8.764;2022-10-16T09:50:00;101410.88;;;16.27;49.03
54920;BME280;63804;53.120;8.764;2022-10-16T09:52:30;101411.06;;;16.38;48.80
54920;BME280;63804;53.120;8.764;2022-10-16T09:55:02;101416.88;;;16.33;48.93
54920;BME280;63804;53.120;8.764;2022-10-16T09:57:48;101418.28;;;16.23;48.99
54920;BME280;63804;53.120;8.764;2022-10-16T10:00:16;101410.94;;;16.31;49.17
54920;BME280;63804;53.120;8.764;2022-10-16T10:02:43;101427.41;;;16.27;48.86
54920;BME280;63804;53.120;8.764;2022-10-16T10:05:21;101424.06;;;16.37;48.83
54920;BME280;63804;53.120;8.764;2022-10-16T10:07:57;101430.84;;;16.43;48.64
54920;BME280;63804;53.120;8.764;2022-10-16T10:10:31;101435.97;;;16.45;48.45
54920;BME280;63804;53.120;8.764;2022-10-16T10:12:57;101439.91;;;16.44;48.71
54920;BME280;63804;53.120;8.764;2022-10-16T10:15:24;101428.88;;;16.44;48.77
54920;BME280;63804;53.120;8.764;2022-10-16T10:17:54;101440.06;;;16.51;48.42
54920;BME280;63804;53.120;8.764;2022-10-16T10:20:30;101455.88;;;16.54;48.44
54920;BME280;63804;53.120;8.764;2022-10-16T10:22:58;101453.78;;;16.48;48.54
54920;BME280;63804;53.120;8.764;2022-10-16T10:31:02;101458.16;;;16.98;47.34
54920;BME280;63804;53.120;8.764;2022-10-16T10:33:43;101465.97;;;17.19;46.93
54920;BME280;63804;53.120;8.764;2022-10-16T10:36:16;101462.81;;;17.17;46.74
54920;BME280;63804;53.120;8.764;2022-10-16T10:38:53;101469.97;;;16.95;46.52
54920;BME280;63804;53.120;8.764;2022-10-16T10:47:05;101480.41;;;17.09;46.39
54920;BME280;63804;53.120;8.764;2022-10-16T10:50:25;101467.94;;;17.19;45.92
54920;BME280;63804;53.120;8.764;2022-10-16T10:55:14;101470.72;;;17.19;45.28
54920;BME280;63804;53.120;8.764;2022-10-16T11:06:16;101472.09;;;17.06;45.43
54920;BME280;63804;53.120;8.764;2022-10-16T11:08:53;101478.06;;;17.11;45.20
54920;BME280;63804;53.120;8.764;2022-10-16T11:11:46;101474.63;;;17.18;45.10
54920;BME280;63804;53.120;8.764;2022-10-16T11:14:30;101487.53;;;17.10;45.15
54920;BME280;63804;53.120;8.764;2022-10-16T11:17:26;101487.44;;;17.07;44.69
54920;BME280;63804;53.120;8.764;2022-10-16T11:19:57;101490.81;;;17.19;45.00
54920;BME280;63804;53.120;8.764;2022-10-16T11:22:39;101490.75;;;17.16;45.07
54920;BME280;63804;53.120;8.764;2022-10-16T11:25:16;101497.97;;;17.24;44.81
54920;BME280;63804;53.120;8.764;2022-10-16T11:28:08;101496.38;;;17.23;44.48
54920;BME280;63804;53.120;8.764;2022-10-16T11:30:47;101507.13;;;17.28;44.32
54920;BME280;63804;53.120;8.764;2022-10-16T11:35:48;101495.34;;;17.58;43.51
54920;BME280;63804;53.120;8.764;2022-10-16T11:38:27;101494.16;;;17.29;44.24
54920;BME280;63804;53.120;8.764;2022-10-16T11:40:58;101503.31;;;17.36;43.73
54920;BME280;63804;53.120;8.764;2022-10-16T11:43:34;101512.81;;;17.39;43.84
54920;BME280;63804;53.120;8.764;2022-10-16T11:46:09;101519.31;;;17.27;44.08
54920;BME280;63804;53.120;8.764;2022-10-16T11:54:22;101525.00;;;17.38;42.46
54920;BME280;63804;53.120;8.764;2022-10-16T11:56:53;101542.44;;;17.42;42.93
54920;BME280;63804;53.120;8.764;2022-10-16T11:59:31;101534.63;;;17.48;41.50
54920;BME280;63804;53.120;8.764;2022-10-16T12:02:26;101529.78;;;17.41;41.84
54920;BME280;63804;53.120;8.764;2022-10-16T12:10:22;101539.53;;;17.35;42.39
54920;BME280;63804;53.120;8.764;2022-10-16T12:12:48;101545.25;;;17.23;42.41
54920;BME280;63804;53.120;8.764;2022-10-16T12:15:21;101539.78;;;17.26;42.37
54920;BME280;63804;53.120;8.764;2022-10-16T12:17:49;101547.78;;;17.31;42.41
54920;BME280;63804;53.120;8.764;2022-10-16T12:20:21;101547.78;;;17.31;42.26
54920;BME280;63804;53.120;8.764;2022-10-16T12:22:53;101556.97;;;17.16;42.77
54920;BME280;63804;53.120;8.764;2022-10-16T12:30:25;101567.84;;;17.55;41.81
54920;BME280;63804;53.120;8.764;2022-10-16T12:33:03;101556.84;;;17.58;41.50
54920;BME280;63804;53.120;8.764;2022-10-16T12:35:35;101565.69;;;17.68;41.40
54920;BME280;63804;53.120;8.764;2022-10-16T12:38:21;101566.25;;;17.81;41.14
54920;BME280;63804;53.120;8.764;2022-10-16T12:41:07;101579.00;;;17.62;41.01
54920;BME280;63804;53.120;8.764;2022-10-16T12:43:42;101568.75;;;17.36;40.30
54920;BME280;63804;53.120;8.764;2022-10-16T12:48:34;101587.44;;;17.46;41.05
54920;BME280;63804;53.120;8.764;2022-10-16T12:53:44;101584.66;;;17.23;41.08
54920;BME280;63804;53.120;8.764;2022-10-16T12:56:24;101595.84;;;17.30;40.36
54920;BME280;63804;53.120;8.764;2022-10-16T12:59:01;101594.25;;;17.29;40.73
54920;BME280;63804;53.120;8.764;2022-10-16T13:01:40;101601.75;;;17.29;41.10
54920;BME280;63804;53.120;8.764;2022-10-16T13:04:37;101600.66;;;17.14;41.02
54920;BME280;63804;53.120;8.764;2022-10-16T13:13:16;101614.66;;;17.48;40.02
54920;BME280;63804;53.120;8.764;2022-10-16T13:16:12;101608.94;;;17.60;40.38
54920;BME280;63804;53.120;8.764;2022-10-16T13:27:09;101625.13;;;17.38;40.44
54920;BME280;63804;53.120;8.764;2022-10-16T13:29:39;101616.81;;;17.35;40.95
54920;BME280;63804;53.120;8.764;2022-10-16T13:32:10;101626.78;;;17.43;40.89
54920;BME280;63804;53.120;8.764;2022-10-16T13:34:47;101628.03;;;17.46;40.67
54920;BME280;63804;53.120;8.764;2022-10-16T13:37:22;101632.31;;;17.43;39.41
54920;BME280;63804;53.120;8.764;2022-10-16T13:39:48;101637.84;;;17.43;39.76
54920;BME280;63804;53.120;8.764;2022-10-16T13:42:26;101642.44;;;17.35;39.39
54920;BME280;63804;53.120;8.764;2022-10-16T13:44:54;101635.75;;;17.60;39.24
54920;BME280;63804;53.120;8.764;2022-10-16T13:47:24;101636.53;;;17.60;38.73
54920;BME280;63804;53.120;8.764;2022-10-16T13:50:25;101646.78;;;17.60;38.60
54920;BME280;63804;53.120;8.764;2022-10-16T13:52:51;101644.88;;;17.64;39.40
54920;BME280;63804;53.120;8.764;2022-10-16T13:55:18;101651.63;;;17.66;39.23
54920;BME280;63804;53.120;8.764;2022-10-16T13:57:44;101653.22;;;17.67;39.32
54920;BME280;63804;53.120;8.764;2022-10-16T14:00:24;101652.03;;;17.68;39.24
54920;BME280;63804;53.120;8.764;2022-10-16T14:02:55;101658.19;;;17.58;39.50
54920;BME280;63804;53.120;8.764;2022-10-16T14:05:23;101663.19;;;17.49;39.89
54920;BME280;63804;53.120;8.764;2022-10-16T14:07:50;101671.63;;;17.60;39.31
54920;BME280;63804;53.120;8.764;2022-10-16T14:10:23;101662.56;;;17.59;39.43
54920;BME280;63804;53.120;8.764;2022-10-16T14:12:54;101669.34;;;17.65;38.83
54920;BME280;63804;53.120;8.764;2022-10-16T14:15:19;101669.34;;;17.65;39.81
54920;BME280;63804;53.120;8.764;2022-10-16T14:17:49;101675.72;;;17.69;39.79
54920;BME280;63804;53.120;8.764;2022-10-16T14:20:15;101687.19;;;17.71;39.60
54920;BME280;63804;53.120;8.764;2022-10-16T14:22:41;101687.72;;;17.54;39.72
54920;BME280;63804;53.120;8.764;2022-10-16T14:28:04;101688.75;;;17.69;39.76